Flight Track Log - Related Links

Times and Time Zones

All times are in EDT time to prevent confusion due to time zone crossing. See the UAL118 flight status page for this flight to view local times or setup timezone preferences in your user account.

Time Position Orientation Groundspeed Altitude Reporting Facility
EDT Latitude Longitude Course Direction KTS MPH feet Rate Location/Type
Wed 03:04:47 AM 50.0140 8.3580 298° West 237 273 5,400  Level FlightAware ADS-B
Wed 03:05:00 AM 50.1730 8.1311 298° West  Level FlightAware Approximate
Wed 03:05:12 AM 50.0080 8.3120 259° West 253 291 6,400  Level FlightAware ADS-B
Wed 03:05:42 AM 50.0110 8.2610 275° West 256 295 7,800 3,000 Climbing FlightAware ADS-B
Wed 03:05:52 AM 50.0190 8.2430 305° West 257 296 8,400 2,700 Climbing FlightAware ADS-B
Wed 03:06:02 AM 50.0240 8.2360 318° Northwest 260 299 8,700 2,618 Climbing FlightAware ADS-B
Wed 03:06:47 AM 50.0670 8.1860 323° Northwest 266 306 10,800 2,133 Climbing FlightAware ADS-B
Wed 03:07:32 AM 50.1180 8.1260 323° Northwest 306 352 11,900 1,400 Climbing FlightAware ADS-B
Wed 03:08:17 AM 50.1690 8.0650 323° Northwest 343 395 12,900 1,624 Climbing FlightAware ADS-B
Wed 03:08:57 AM 50.2270 7.9960 323° Northwest 368 423 14,200 1,650 Climbing FlightAware ADS-B
Wed 03:09:37 AM 50.2780 7.9350 323° Northwest 388 447 15,100 1,950 Climbing FlightAware ADS-B
Wed 03:10:17 AM 50.3390 7.8610 322° Northwest 389 448 16,800 2,188 Climbing FlightAware ADS-B
Wed 03:11:02 AM 50.4030 7.7850 323° Northwest 407 468 18,200 2,067 Climbing FlightAware ADS-B
Wed 03:11:47 AM 50.4740 7.6990 322° Northwest 412 474 19,900 2,047 Climbing FlightAware ADS-B
Wed 03:12:27 AM 50.5340 7.6260 322° Northwest 410 472 21,100 1,694 Climbing FlightAware ADS-B
Wed 03:13:12 AM 50.6030 7.5430 323° Northwest 428 493 22,300 1,835 Climbing FlightAware ADS-B
Wed 03:13:52 AM 50.6710 7.4610 323° Northwest 430 495 23,700 1,950 Climbing FlightAware ADS-B
Wed 03:14:32 AM 50.7350 7.3820 322° Northwest 432 497 24,900 1,624 Climbing FlightAware ADS-B
Wed 03:15:17 AM 50.7770 7.2640 299° West 426 490 26,000 1,412 Climbing FlightAware ADS-B
Wed 03:15:57 AM 50.7920 7.1420 281° West 431 496 26,900 1,341 Climbing FlightAware ADS-B
Wed 03:16:42 AM 50.8160 7.0220 288° West 430 495 27,900 1,906 Climbing FlightAware ADS-B
Wed 03:17:22 AM 50.8370 6.8960 285° West 419 482 29,600 2,100 Climbing FlightAware ADS-B
Wed 03:18:02 AM 50.8540 6.7870 284° West 413 475 30,700 1,694 Climbing FlightAware ADS-B
Wed 03:18:47 AM 50.8750 6.6480 284° West 404 465 32,000 1,624 Climbing FlightAware ADS-B
Wed 03:19:27 AM 50.8920 6.5350 283° West 402 463 33,000 1,412 Climbing FlightAware ADS-B
Wed 03:20:12 AM 50.9110 6.4040 283° West 400 460 34,000 706 Climbing FlightAware ADS-B
Wed 03:20:52 AM 50.9270 6.2900 283° West 401 461 34,000  Level FlightAware ADS-B
Wed 03:21:32 AM 50.9440 6.1740 283° West 400 460 34,000  Level FlightAware ADS-B
Wed 03:22:17 AM 50.9630 6.0460 283° West 399 459 34,000  Level FlightAware ADS-B
Wed 03:22:57 AM 50.9780 5.9370 282° West 399 459 34,000  Level FlightAware ADS-B
Wed 03:23:42 AM 50.9970 5.8050 283° West 399 459 34,000  Level FlightAware ADS-B
Wed 03:24:22 AM 51.0130 5.6890 282° West 398 458 34,000  Level FlightAware ADS-B
Wed 03:25:02 AM 51.0300 5.5730 283° West 400 460 34,000 424 Level FlightAware ADS-B
Wed 03:25:47 AM 51.0470 5.4470 282° West 399 459 34,600 988 Climbing FlightAware ADS-B
Wed 03:26:27 AM 51.0610 5.3450 282° West 394 453 35,400 1,050 Climbing FlightAware ADS-B
Wed 03:27:07 AM 51.0780 5.2220 282° West 392 451 36,000 424 Climbing FlightAware ADS-B
Wed 03:27:52 AM 51.0970 5.0860 283° West 389 448 36,000 -1,406 Level FlightAware ADS-B
Wed 03:28:11 AM 51.1065 5.0323 283° West 456 525 34,500  Descending FlightAware UK
Wed 03:28:32 AM 51.1110 4.9740 283° West 388 447 36,000  Climbing FlightAware ADS-B
Wed 03:28:59 AM 51.1239 4.8986 283° West 456 525 34,500  Descending FlightAware UK
Wed 03:29:17 AM 51.1280 4.8470 283° West 389 448 36,000  Climbing FlightAware ADS-B
Wed 03:29:35 AM 51.1368 4.7978 283° West 458 527 34,500  Descending FlightAware UK
Wed 03:29:57 AM 51.1430 4.7340 283° West 389 448 36,000  Climbing FlightAware ADS-B
Wed 03:30:17 AM 51.1517 4.6802 283° West 458 527 34,500  Descending FlightAware UK
Wed 03:30:37 AM 51.1580 4.6230 283° West 388 447 36,000  Climbing FlightAware ADS-B
Wed 03:30:53 AM 51.1648 4.5799 283° West 458 527 34,500 -2,250 Descending FlightAware UK
Wed 03:31:17 AM 51.1739 4.5135 282° West 456 525 34,500 3,750 Level FlightAware UK
Wed 03:31:17 AM 51.1720 4.5100 282° West 387 445 36,000  Climbing FlightAware ADS-B
Wed 03:31:35 AM 51.1816 4.4643 282° West 456 525 34,500 -2,500 Descending FlightAware UK
Wed 03:31:53 AM 51.1882 4.4142 282° West 456 525 34,500 3,333 Level FlightAware UK
Wed 03:32:02 AM 51.1880 4.3860 282° West 387 445 36,000  Climbing FlightAware ADS-B
Wed 03:32:35 AM 51.2032 4.2977 282° West 456 525 34,500  Descending FlightAware UK
Wed 03:32:42 AM 51.2030 4.2740 282° West 388 447 36,000  Climbing FlightAware ADS-B
Wed 03:32:59 AM 51.2095 4.2298 282° West 456 525 34,500 -2,571 Descending FlightAware UK
Wed 03:33:17 AM 51.2162 4.1795 282° West 456 525 34,500 2,727 Level FlightAware UK
Wed 03:33:32 AM 51.2200 4.1340 282° West 390 449 36,000  Climbing FlightAware ADS-B
Wed 03:33:53 AM 51.2280 4.0779 282° West 458 527 34,500  Descending FlightAware UK
Wed 03:34:12 AM 51.2340 4.0210 282° West 391 450 36,000 1,525 Climbing FlightAware ADS-B
Wed 03:34:52 AM 51.2480 3.9080 281° West 391 450 36,000 -1,525 Level FlightAware ADS-B
Wed 03:35:11 AM 51.2562 3.8588 281° West 460 529 34,500  Descending FlightAware UK
Wed 03:35:37 AM 51.2640 3.7780 281° West 391 450 36,000 1,475 Climbing FlightAware ADS-B
Wed 03:36:12 AM 51.2760 3.6820 281° West 391 450 36,000 -1,406 Level FlightAware ADS-B
Wed 03:36:41 AM 51.2865 3.6046 281° West 460 529 34,500  Descending FlightAware UK
Wed 03:37:02 AM 51.2930 3.5420 281° West 390 449 36,000 1,475 Climbing FlightAware ADS-B
Wed 03:37:42 AM 51.3060 3.4310 281° West 391 450 36,000 -1,200 Level FlightAware ADS-B
Wed 03:38:17 AM 51.3182 3.3342 281° West 460 529 34,500  Descending FlightAware UK
Wed 03:38:22 AM 51.3190 3.3190 281° West 391 450 36,000  Climbing FlightAware ADS-B
Wed 03:38:47 AM 51.3281 3.2491 281° West 460 529 34,500  Descending FlightAware UK
Wed 03:39:07 AM 51.3340 3.1930 281° West 391 450 36,000  Climbing FlightAware ADS-B
Wed 03:39:23 AM 51.3400 3.1477 281° West 460 529 34,500  Descending FlightAware UK
Wed 03:39:42 AM 51.3460 3.0890 281° West 391 450 36,000  Climbing FlightAware ADS-B
Wed 03:39:59 AM 51.3518 3.0455 281° West 460 529 34,500 -2,195 Descending FlightAware UK
Wed 03:40:23 AM 51.3597 2.9772 281° West 460 529 34,500 2,647 Level FlightAware UK
Wed 03:40:33 AM 51.3635 2.9357 281° West 392 451 36,000  Climbing FlightAware ADS-B
Wed 03:40:59 AM 51.3713 2.8748 281° West 460 529 34,500  Descending FlightAware UK
Wed 03:41:12 AM 51.3750 2.8340 281° West 391 450 36,000 2,308 Climbing FlightAware ADS-B
Wed 03:41:38 AM 51.3842 2.7517 280° West 392 451 36,000 -1,915 Level FlightAware ADS-B
Wed 03:41:59 AM 51.3907 2.7044 280° West 460 529 34,500  Descending FlightAware UK
Wed 03:42:13 AM 51.3954 2.6518 280° West 391 450 36,000  Climbing FlightAware ADS-B
Wed 03:42:34 AM 51.4017 2.6026 280° West 460 529 34,500  Descending FlightAware UK
Wed 03:42:46 AM 51.4055 2.5598 280° West 391 450 36,000  Climbing FlightAware ADS-B
Wed 03:43:04 AM 51.4111 2.5175 280° West 462 532 34,500  Descending FlightAware UK
Wed 03:43:16 AM 51.4151 2.4728 280° West 391 450 36,000  Climbing FlightAware ADS-B
Wed 03:43:34 AM 51.4205 2.4324 280° West 462 532 34,500  Descending FlightAware UK
Wed 03:43:47 AM 51.4246 2.3847 280° West 391 450 36,000  Climbing FlightAware ADS-B
Wed 03:44:04 AM 51.4299 2.3471 280° West 462 532 34,500  Descending FlightAware UK
Wed 03:44:18 AM 51.4342 2.2959 280° West 391 450 36,000  Climbing FlightAware ADS-B
Wed 03:44:34 AM 51.4390 2.2616 280° West 462 532 34,500  Descending FlightAware UK
Wed 03:44:51 AM 51.4440 2.2044 280° West 389 448 36,000  Climbing FlightAware ADS-B
Wed 03:45:16 AM 51.4519 2.1427 280° West 462 532 34,500  Descending FlightAware UK
Wed 03:45:23 AM 51.4540 2.1109 280° West 389 448 36,000  Climbing FlightAware ADS-B
Wed 03:45:46 AM 51.4608 2.0575 280° West 462 532 34,500  Descending FlightAware UK
Wed 03:45:57 AM 51.4637 2.0175 280° West 387 445 36,000  Climbing FlightAware ADS-B
Wed 03:46:16 AM 51.4696 1.9733 280° West 460 529 34,500  Descending FlightAware UK
Wed 03:46:27 AM 51.4726 1.9311 280° West 386 444 36,000  Climbing FlightAware ADS-B
Wed 03:46:46 AM 51.4786 1.8884 280° West 460 529 34,500  Descending FlightAware UK
Wed 03:47:00 AM 51.4823 1.8393 280° West 386 444 36,000  Climbing FlightAware ADS-B
Wed 03:47:22 AM 51.4892 1.7878 280° West 458 527 34,500  Descending FlightAware UK
Wed 03:47:33 AM 51.4917 1.7463 280° West 387 445 36,000 2,195 Climbing FlightAware ADS-B
Wed 03:48:03 AM 51.5005 1.6592 279° West 387 445 36,000 -1,837 Level FlightAware ADS-B
Wed 03:48:22 AM 51.5067 1.6185 279° West 458 527 34,500 -2,093 Descending FlightAware UK
Wed 03:48:46 AM 51.5135 1.5506 279° West 458 527 34,500 3,000 Level FlightAware UK
Wed 03:48:52 AM 51.5140 1.5290 279° West 386 444 36,000 2,903 Climbing FlightAware ADS-B
Wed 03:49:17 AM 51.5214 1.4506 279° West 387 445 36,000 -1,875 Level FlightAware ADS-B
Wed 03:49:40 AM 51.5286 1.3985 279° West 460 529 34,500  Descending FlightAware UK
Wed 03:49:49 AM 51.5303 1.3604 279° West 387 445 36,000  Climbing FlightAware ADS-B
Wed 03:50:10 AM 51.5371 1.3133 279° West 462 532 34,500  Descending FlightAware UK
Wed 03:50:20 AM 51.5387 1.2746 279° West 386 444 36,000  Climbing FlightAware ADS-B
Wed 03:50:40 AM 51.5455 1.2287 279° West 462 532 34,500  Descending FlightAware UK
Wed 03:50:50 AM 51.5470 1.1889 279° West 385 443 36,000  Climbing FlightAware ADS-B
Wed 03:51:10 AM 51.5536 1.1448 279° West 462 532 34,500  Descending FlightAware UK
Wed 03:51:20 AM 51.5552 1.1041 279° West 383 441 36,000  Climbing FlightAware ADS-B
Wed 03:51:40 AM 51.5619 1.0612 279° West 462 532 34,500  Descending FlightAware UK
Wed 03:51:50 AM 51.5631 1.0200 279° West 383 441 36,000  Climbing FlightAware ADS-B
Wed 03:52:10 AM 51.5699 0.9772 279° West 462 532 34,500  Descending FlightAware UK
Wed 03:52:21 AM 51.5714 0.9336 279° West 382 440 36,000 2,143 Climbing FlightAware ADS-B
Wed 03:52:52 AM 51.5796 0.8457 279° West 381 438 36,000 -1,837 Level FlightAware ADS-B
Wed 03:53:10 AM 51.5858 0.8094 279° West 462 532 34,500  Descending FlightAware UK
Wed 03:53:23 AM 51.5875 0.7594 279° West 379 436 36,000  Climbing FlightAware ADS-B
Wed 03:53:40 AM 51.5938 0.7253 279° West 462 532 34,500  Descending FlightAware UK
Wed 03:53:54 AM 51.5954 0.6746 279° West 377 434 36,000  Climbing FlightAware ADS-B
Wed 03:54:10 AM 51.6015 0.6428 279° West 460 529 34,500  Descending FlightAware UK
Wed 03:54:25 AM 51.6033 0.5885 279° West 376 433 36,000 1,957 Climbing FlightAware ADS-B
Wed 03:54:56 AM 51.6108 0.5047 278° West 376 433 36,000 -1,800 Level FlightAware ADS-B
Wed 03:55:15 AM 51.6181 0.4615 278° West 460 529 34,500  Descending FlightAware UK
Wed 03:55:26 AM 51.6181 0.4241 278° West 376 433 36,000 2,195 Climbing FlightAware ADS-B
Wed 03:55:56 AM 51.6258 0.3376 278° West 376 433 36,000  Level FlightAware ADS-B
Wed 03:56:27 AM 51.6330 0.2545 278° West 375 432 36,000  Level FlightAware ADS-B
Wed 03:56:48 AM 51.6383 0.1969 278° West 374 430 36,000  Level FlightAware ADS-B
Wed 03:56:57 AM 51.6433 0.1703 287° West 379 436 36,000  Level FlightAware ADS-B
Wed 03:57:04 AM 51.6476 0.1548 294° West 381 438 36,000  Level FlightAware ADS-B
Wed 03:57:12 AM 51.6553 0.1344 301° West 387 445 36,000  Level FlightAware ADS-B
Wed 03:57:20 AM 51.6639 0.1172 309° West 395 455 36,000  Level FlightAware ADS-B
Wed 03:57:23 AM 51.6684 0.1102 316° Northwest 398 458 36,000 -3,600 Level FlightAware ADS-B
Wed 03:57:45 AM 51.7046 0.0792 316° Northwest 456 525 34,500  Descending FlightAware UK
Wed 03:57:53 AM 51.7125 0.0540 316° Northwest 405 466 36,000  Climbing FlightAware ADS-B
Wed 03:58:15 AM 51.7494 0.0249 316° Northwest 458 527 34,500  Descending FlightAware UK
Wed 03:58:24 AM 51.7585 -0.0014 316° Northwest 405 466 36,000  Climbing FlightAware ADS-B
Wed 03:58:39 AM 51.7857 -0.0182 316° Northwest 458 527 34,500  Descending FlightAware UK
Wed 03:58:57 AM 51.8074 -0.0601 316° Northwest 405 466 36,000 1,875 Climbing FlightAware ADS-B
Wed 03:59:27 AM 51.8525 -0.1148 323° Northwest 405 466 36,000  Level FlightAware ADS-B
Wed 03:59:57 AM 51.8975 -0.1698 323° Northwest 404 465 36,000  Level FlightAware ADS-B
Wed 04:00:28 AM 51.9434 -0.2263 323° Northwest 404 465 36,000 -1,667 Level FlightAware ADS-B
Wed 04:00:51 AM 51.9827 -0.2585 323° Northwest 456 525 34,500  Descending FlightAware UK
Wed 04:00:58 AM 51.9881 -0.2816 323° Northwest 404 465 36,000  Climbing FlightAware ADS-B
Wed 04:01:15 AM 52.0184 -0.3025 323° Northwest 454 522 34,500  Descending FlightAware UK
Wed 04:01:28 AM 52.0326 -0.3367 323° Northwest 405 466 36,000  Climbing FlightAware ADS-B
Wed 04:01:45 AM 52.0630 -0.3578 323° Northwest 454 522 34,500  Descending FlightAware UK
Wed 04:01:58 AM 52.0774 -0.3923 323° Northwest 405 466 36,000  Climbing FlightAware ADS-B
Wed 04:02:15 AM 52.1078 -0.4133 323° Northwest 456 525 34,500  Descending FlightAware UK
Wed 04:02:29 AM 52.1228 -0.4482 323° Northwest 405 466 36,000  Climbing FlightAware ADS-B
Wed 04:02:51 AM 52.1612 -0.4796 323° Northwest 456 525 34,500  Descending FlightAware UK
Wed 04:03:00 AM 52.1688 -0.5056 323° Northwest 405 466 36,000  Climbing FlightAware ADS-B
Wed 04:03:15 AM 52.1970 -0.5241 323° Northwest 454 522 34,500  Descending FlightAware UK
Wed 04:03:30 AM 52.2135 -0.5614 323° Northwest 404 465 36,000 2,000 Climbing FlightAware ADS-B
Wed 04:04:00 AM 52.2580 -0.6170 323° Northwest 405 466 36,000 -2,000 Level FlightAware ADS-B
Wed 04:04:15 AM 52.2864 -0.6356 323° Northwest 456 525 34,500  Descending FlightAware UK
Wed 04:04:31 AM 52.3040 -0.6746 323° Northwest 405 466 36,000 1,957 Climbing FlightAware ADS-B
Wed 04:05:01 AM 52.3488 -0.7310 322° Northwest 405 466 36,000 -1,800 Level FlightAware ADS-B
Wed 04:05:21 AM 52.3846 -0.7589 322° Northwest 456 525 34,500  Descending FlightAware UK
Wed 04:05:38 AM 52.4032 -0.7996 322° Northwest 406 467 36,000 1,915 Climbing FlightAware ADS-B
Wed 04:06:08 AM 52.4484 -0.8566 322° Northwest 407 468 36,000 -1,837 Level FlightAware ADS-B
Wed 04:06:27 AM 52.4825 -0.8827 322° Northwest 456 525 34,500  Descending FlightAware UK
Wed 04:06:38 AM 52.4930 -0.9131 322° Northwest 406 467 36,000 2,143 Climbing FlightAware ADS-B
Wed 04:07:09 AM 52.5385 -0.9711 322° Northwest 406 467 36,000  Level FlightAware ADS-B
Wed 04:07:40 AM 52.5845 -1.0295 322° Northwest 407 468 36,000 -1,875 Level FlightAware ADS-B
Wed 04:07:57 AM 52.6164 -1.0531 322° Northwest 458 527 34,500  Descending FlightAware UK
Wed 04:08:13 AM 52.6339 -1.0927 322° Northwest 407 468 36,000  Climbing FlightAware ADS-B
Wed 04:08:39 AM 52.6788 -1.1328 322° Northwest 458 527 34,500  Descending FlightAware UK
Wed 04:08:46 AM 52.6820 -1.1541 322° Northwest 407 468 36,000 2,432 Climbing FlightAware ADS-B
Wed 04:09:16 AM 52.7268 -1.2116 322° Northwest 407 468 36,000 -1,957 Level FlightAware ADS-B
Wed 04:09:32 AM 52.7588 -1.2356 322° Northwest 460 529 34,500  Descending FlightAware UK
Wed 04:09:47 AM 52.7730 -1.2710 322° Northwest 407 468 36,000  Climbing FlightAware ADS-B
Wed 04:10:08 AM 52.8124 -1.3045 322° Northwest 460 529 34,500  Descending FlightAware UK
Wed 04:10:18 AM 52.8178 -1.3287 322° Northwest 407 468 36,000  Climbing FlightAware ADS-B
Wed 04:10:38 AM 52.8569 -1.3621 322° Northwest 458 527 34,500  Descending FlightAware UK
Wed 04:10:56 AM 52.8743 -1.4020 322° Northwest 407 468 36,000  Climbing FlightAware ADS-B
Wed 04:11:20 AM 52.9185 -1.4423 322° Northwest 460 529 34,500  Descending FlightAware UK
Wed 04:11:32 AM 52.9220 -1.4640 322° Northwest 409 471 36,000 4,286 Climbing FlightAware ADS-B
Wed 04:11:41 AM 52.9406 -1.4880 322° Northwest 408 470 36,000 -3,000 Level FlightAware ADS-B
Wed 04:12:02 AM 52.9808 -1.5235 322° Northwest 460 529 34,500  Descending FlightAware UK
Wed 04:12:12 AM 52.9820 -1.5420 322° Northwest 410 472 36,000  Climbing FlightAware ADS-B
Wed 04:12:32 AM 53.0254 -1.5817 322° Northwest 460 529 34,500 -2,368 Descending FlightAware UK
Wed 04:12:50 AM 53.0521 -1.6165 322° Northwest 458 527 34,500 4,500 Level FlightAware UK
Wed 04:12:52 AM 53.0400 -1.6180 322° Northwest 408 470 36,000  Climbing FlightAware ADS-B
Wed 04:13:08 AM 53.0788 -1.6514 322° Northwest 460 529 34,500 -2,647 Descending FlightAware UK
Wed 04:13:26 AM 53.1054 -1.6864 322° Northwest 464 534 34,500 3,103 Level FlightAware UK
Wed 04:13:37 AM 53.1070 -1.7050 322° Northwest 407 468 36,000  Climbing FlightAware ADS-B
Wed 04:13:56 AM 53.1496 -1.7447 322° Northwest 462 532 34,500  Descending FlightAware UK
Wed 04:14:17 AM 53.1660 -1.7830 322° Northwest 407 468 36,000  Climbing FlightAware ADS-B
Wed 04:14:44 AM 53.2204 -1.8377 322° Northwest 460 529 34,500  Descending FlightAware UK
Wed 04:14:57 AM 53.2250 -1.8590 322° Northwest 407 468 36,000  Climbing FlightAware ADS-B
Wed 04:15:14 AM 53.2647 -1.8958 322° Northwest 462 532 34,500 -2,195 Descending FlightAware UK
Wed 04:15:38 AM 53.3003 -1.9423 322° Northwest 458 527 34,500 3,214 Level FlightAware UK
Wed 04:15:42 AM 53.2900 -1.9450 322° Northwest 408 470 36,000 8,182 Climbing FlightAware ADS-B
Wed 04:15:49 AM 53.3082 -1.9690 322° Northwest 407 468 36,000 -3,462 Level FlightAware ADS-B
Wed 04:16:08 AM 53.3447 -2.0005 322° Northwest 462 532 34,500  Descending FlightAware UK
Wed 04:16:20 AM 53.3539 -2.0284 322° Northwest 407 468 36,000  Climbing FlightAware ADS-B
Wed 04:16:38 AM 53.3890 -2.0584 322° Northwest 460 529 34,500 -2,500 Descending FlightAware UK
Wed 04:16:56 AM 53.4158 -2.0932 322° Northwest 460 529 34,500 3,103 Level FlightAware UK
Wed 04:17:07 AM 53.4180 -2.1110 322° Northwest 407 468 36,000 2,250 Climbing FlightAware ADS-B
Wed 04:17:36 AM 53.4657 -2.1751 321° Northwest 405 466 36,000  Level FlightAware ADS-B
Wed 04:17:41 AM 53.4720 -2.1853 316° Northwest 395 455 36,000 -3,462 Level FlightAware ADS-B
Wed 04:18:02 AM 53.5021 -2.2320 316° Northwest 458 527 34,500  Descending FlightAware UK
Wed 04:18:32 AM 53.5150 -2.3010 316° Northwest 371 427 36,000  Climbing FlightAware ADS-B
Wed 04:18:50 AM 53.5403 -2.3541 316° Northwest 454 522 34,500  Descending FlightAware UK
Wed 04:19:12 AM 53.5440 -2.4030 316° Northwest 370 426 36,000  Climbing FlightAware ADS-B
Wed 04:19:38 AM 53.5757 -2.4784 316° Northwest 456 525 34,500  Descending FlightAware UK
Wed 04:19:52 AM 53.5750 -2.5080 316° Northwest 372 428 36,000  Climbing FlightAware ADS-B
Wed 04:20:07 AM 53.5983 -2.5554 316° Northwest 456 525 34,500 -2,727 Descending FlightAware UK
Wed 04:20:25 AM 53.6121 -2.6020 297° West 454 522 34,500 3,000 Level FlightAware UK
Wed 04:20:37 AM 53.6090 -2.6240 297° West 372 428 36,000  Climbing FlightAware ADS-B
Wed 04:20:56 AM 53.6351 -2.6798 297° West 454 522 34,500  Descending FlightAware UK
Wed 04:21:17 AM 53.6380 -2.7220 297° West 371 427 36,000  Climbing FlightAware ADS-B
Wed 04:21:37 AM 53.6666 -2.7877 297° West 456 525 34,500  Descending FlightAware UK
Wed 04:21:57 AM 53.6700 -2.8310 297° West 372 428 36,000  Climbing FlightAware ADS-B
Wed 04:22:13 AM 53.6936 -2.8811 297° West 456 525 34,500 -2,647 Descending FlightAware UK
Wed 04:22:31 AM 53.7070 -2.9274 296° West 456 525 34,500 3,103 Level FlightAware UK
Wed 04:22:42 AM 53.7040 -2.9480 296° West 373 429 36,000  Climbing FlightAware ADS-B
Wed 04:23:13 AM 53.7385 -3.0374 296° West 458 527 34,500  Descending FlightAware UK
Wed 04:23:22 AM 53.7330 -3.0490 296° West 374 430 36,000  Climbing FlightAware ADS-B
Wed 04:23:37 AM 53.7565 -3.1005 296° West 458 527 34,500  Descending FlightAware UK
Wed 04:24:07 AM 53.7670 -3.1690 296° West 375 432 36,000  Climbing FlightAware ADS-B
Wed 04:24:25 AM 53.7922 -3.2262 296° West 458 527 34,500  Descending FlightAware UK
Wed 04:24:47 AM 53.7970 -3.2710 296° West 380 437 36,000  Climbing FlightAware ADS-B
Wed 04:25:07 AM 53.8276 -3.3351 296° West 456 525 34,500  Descending FlightAware UK
Wed 04:25:27 AM 53.8330 -3.3770 296° West 383 441 36,000  Climbing FlightAware ADS-B
Wed 04:25:43 AM 53.8594 -3.4272 296° West 458 527 34,500 -2,647 Descending FlightAware UK
Wed 04:26:01 AM 53.8752 -3.4745 300° West 458 527 34,500 3,103 Level FlightAware UK
Wed 04:26:12 AM 53.8720 -3.4920 300° West 381 438 36,000  Climbing FlightAware ADS-B
Wed 04:26:31 AM 53.9009 -3.5521 300° West 458 527 34,500  Descending FlightAware UK
Wed 04:26:52 AM 53.9080 -3.5970 300° West 383 441 36,000  Climbing FlightAware ADS-B
Wed 04:27:13 AM 53.9381 -3.6609 300° West 458 527 34,500 -2,308 Descending FlightAware UK
Wed 04:27:31 AM 53.9541 -3.7074 300° West 458 527 34,500 3,750 Level FlightAware UK
Wed 04:27:37 AM 53.9500 -3.7190 300° West 382 440 36,000  Climbing FlightAware ADS-B
Wed 04:28:01 AM 53.9805 -3.7852 300° West 458 527 34,500  Descending FlightAware UK
Wed 04:28:17 AM 53.9840 -3.8200 300° West 383 441 36,000  Climbing FlightAware ADS-B
Wed 04:28:37 AM 54.0119 -3.8784 300° West 460 529 34,500 -2,368 Descending FlightAware UK
Wed 04:28:55 AM 54.0278 -3.9254 300° West 462 532 34,500 4,500 Level FlightAware UK
Wed 04:28:57 AM 54.0190 -3.9240 300° West 385 443 36,000  Climbing FlightAware ADS-B
Wed 04:29:13 AM 54.0437 -3.9725 300° West 460 529 34,500  Descending FlightAware UK
Wed 04:29:42 AM 54.0590 -4.0420 300° West 385 443 36,000  Climbing FlightAware ADS-B
Wed 04:30:01 AM 54.0859 -4.0986 300° West 460 529 34,500 -2,432 Descending FlightAware UK
Wed 04:30:19 AM 54.1018 -4.1459 300° West 458 527 34,500 4,286 Level FlightAware UK
Wed 04:30:22 AM 54.0950 -4.1470 300° West 384 442 36,000  Climbing FlightAware ADS-B
Wed 04:30:37 AM 54.1176 -4.1931 300° West 458 527 34,500  Descending FlightAware UK
Wed 04:31:07 AM 54.1350 -4.2680 300° West 385 443 36,000  Climbing FlightAware ADS-B
Wed 04:31:25 AM 54.1595 -4.3193 300° West 458 527 34,500  Descending FlightAware UK
Wed 04:31:47 AM 54.1690 -4.3690 300° West 385 443 36,000  Climbing FlightAware ADS-B
Wed 04:32:06 AM 54.1961 -4.4294 300° West 456 525 34,500 -2,368 Descending FlightAware UK
Wed 04:32:25 AM 54.2120 -4.4776 299° West 458 527 34,500 4,286 Level FlightAware UK
Wed 04:32:27 AM 54.2060 -4.4790 299° West 386 444 36,000  Climbing FlightAware ADS-B
Wed 04:32:43 AM 54.2277 -4.5253 299° West 460 529 34,500 -2,647 Descending FlightAware UK
Wed 04:33:01 AM 54.2434 -4.5731 299° West 460 529 34,500 3,103 Level FlightAware UK
Wed 04:33:12 AM 54.2450 -4.5980 299° West 387 445 36,000  Climbing FlightAware ADS-B
Wed 04:33:30 AM 54.2694 -4.6524 299° West 464 534 34,500 -2,500 Descending FlightAware UK
Wed 04:33:48 AM 54.2851 -4.7004 299° West 464 534 34,500 4,091 Level FlightAware UK
Wed 04:33:52 AM 54.2800 -4.7030 299° West 388 447 36,000  Climbing FlightAware ADS-B
Wed 04:34:24 AM 54.3165 -4.7967 299° West 464 534 34,500  Descending FlightAware UK
Wed 04:34:37 AM 54.3200 -4.8260 299° West 388 447 36,000  Climbing FlightAware ADS-B
Wed 04:34:54 AM 54.3427 -4.8769 299° West 462 532 34,500 -2,571 Descending FlightAware UK
Wed 04:35:12 AM 54.3582 -4.9251 299° West 462 532 34,500 3,913 Level FlightAware UK
Wed 04:35:17 AM 54.3530 -4.9280 299° West 388 447 36,000  Climbing FlightAware ADS-B
Wed 04:35:36 AM 54.3789 -4.9893 299° West 460 529 34,500  Descending FlightAware UK
Wed 04:35:57 AM 54.3900 -5.0390 299° West 389 448 36,000  Climbing FlightAware ADS-B
Wed 04:36:12 AM 54.4098 -5.0852 299° West 458 527 34,500 -2,727 Descending FlightAware UK
Wed 04:36:30 AM 54.4253 -5.1336 299° West 460 529 34,500 3,000 Level FlightAware UK
Wed 04:36:42 AM 54.4280 -5.1580 299° West 388 447 36,000  Climbing FlightAware ADS-B
Wed 04:37:00 AM 54.4512 -5.2144 299° West 460 529 34,500 -2,500 Descending FlightAware UK
Wed 04:37:18 AM 54.4667 -5.2629 299° West 460 529 34,500 3,333 Level FlightAware UK
Wed 04:37:27 AM 54.4680 -5.2820 299° West 388 447 36,000  Climbing FlightAware ADS-B
Wed 04:37:42 AM 54.4874 -5.3276 299° West 462 532 34,500 -2,727 Descending FlightAware UK
Wed 04:38:00 AM 54.5028 -5.3759 299° West 462 532 34,500 3,600 Level FlightAware UK
Wed 04:38:07 AM 54.5000 -5.3830 299° West 386 444 36,000  Climbing FlightAware ADS-B
Wed 04:38:24 AM 54.5234 -5.4404 299° West 460 529 34,500 -2,571 Descending FlightAware UK
Wed 04:38:42 AM 54.5386 -5.4888 298° West 460 529 34,500 3,214 Level FlightAware UK
Wed 04:38:52 AM 54.5400 -5.5090 298° West 387 445 36,000  Climbing FlightAware ADS-B
Wed 04:39:12 AM 54.5640 -5.5696 298° West 458 527 34,500  Descending FlightAware UK
Wed 04:39:32 AM 54.5750 -5.6170 298° West 387 445 36,000  Climbing FlightAware ADS-B
Wed 04:39:48 AM 54.5946 -5.6668 298° West 454 522 34,500 -2,647 Descending FlightAware UK
Wed 04:40:06 AM 54.6099 -5.7155 298° West 454 522 34,500 3,750 Level FlightAware UK
Wed 04:40:12 AM 54.6090 -5.7260 298° West 389 448 36,000  Climbing FlightAware ADS-B
Wed 04:40:30 AM 54.6304 -5.7809 298° West 454 522 34,500 -2,500 Descending FlightAware UK
Wed 04:40:48 AM 54.6456 -5.8299 298° West 454 522 34,500 3,333 Level FlightAware UK
Wed 04:40:57 AM 54.6480 -5.8510 298° West 391 450 36,000  Climbing FlightAware ADS-B
Wed 04:41:12 AM 54.6662 -5.8957 298° West 454 522 34,500  Descending FlightAware UK
Wed 04:41:27 AM 54.6720 -5.9270 299° West 394 453 36,000  Climbing FlightAware ADS-B
Wed 04:41:30 AM 54.6818 -5.9454 299° West 452 520 34,500 -6,000 Descending FlightAware UK
Wed 04:41:42 AM 54.6921 -5.9787 299° West 450 518 34,500  Level FlightAware UK
Wed 04:42:00 AM 54.7077 -6.0291 298° West 452 520 34,500 2,571 Level FlightAware UK
Wed 04:42:17 AM 54.7140 -6.0620 298° West 394 453 36,000  Climbing FlightAware ADS-B
Wed 04:42:36 AM 54.7386 -6.1297 298° West 456 525 34,500 -2,432 Descending FlightAware UK
Wed 04:42:54 AM 54.7540 -6.1798 298° West 456 525 34,500 3,462 Level FlightAware UK
Wed 04:43:02 AM 54.7530 -6.1870 298° West 398 458 36,000  Climbing FlightAware ADS-B
Wed 04:43:18 AM 54.7746 -6.2472 298° West 456 525 34,500 -2,647 Descending FlightAware UK
Wed 04:43:36 AM 54.7904 -6.2994 298° West 458 527 34,500 3,750 Level FlightAware UK
Wed 04:43:42 AM 54.7900 -6.3080 298° West 406 467 36,000  Climbing FlightAware ADS-B
Wed 04:44:00 AM 54.8115 -6.3680 298° West 462 532 34,500 -2,500 Descending FlightAware UK
Wed 04:44:18 AM 54.8273 -6.4194 298° West 464 534 34,500 3,333 Level FlightAware UK
Wed 04:44:27 AM 54.8300 -6.4370 298° West 409 471 36,000  Climbing FlightAware ADS-B
Wed 04:44:42 AM 54.8484 -6.4887 298° West 462 532 34,500 -2,727 Descending FlightAware UK
Wed 04:45:00 AM 54.8641 -6.5408 298° West 460 529 34,500 4,500 Level FlightAware UK
Wed 04:45:02 AM 54.8600 -6.5370 298° West 409 471 36,000  Climbing FlightAware ADS-B
Wed 04:45:18 AM 54.8799 -6.5928 298° West 460 529 34,500 -2,647 Descending FlightAware UK
Wed 04:45:36 AM 54.8955 -6.6450 298° West 460 529 34,500 2,647 Level FlightAware UK
Wed 04:45:52 AM 54.9040 -6.6820 298° West 411 473 36,000  Climbing FlightAware ADS-B
Wed 04:46:12 AM 54.9269 -6.7496 298° West 460 529 34,500  Descending FlightAware UK
Wed 04:46:32 AM 54.9390 -6.7980 298° West 412 474 36,000  Climbing FlightAware ADS-B
Wed 04:46:48 AM 54.9584 -6.8549 298° West 462 532 34,500 -2,647 Descending FlightAware UK
Wed 04:47:06 AM 54.9742 -6.9078 297° West 462 532 34,500 4,737 Level FlightAware UK
Wed 04:47:07 AM 54.9710 -6.9040 297° West 413 475 36,000  Climbing FlightAware ADS-B
Wed 04:47:24 AM 54.9901 -6.9606 297° West 462 532 34,500 -2,571 Descending FlightAware UK
Wed 04:47:42 AM 55.0058 -7.0137 297° West 464 534 34,500  Level FlightAware UK
Wed 04:48:00 AM 55.0215 -7.0668 297° West 464 534 34,500  Level FlightAware UK
Wed 04:48:18 AM 55.0372 -7.1199 297° West 462 532 34,500 4,091 Level FlightAware UK
Wed 04:48:22 AM 55.0340 -7.1140 297° West 411 473 36,000  Climbing FlightAware ADS-B
Wed 04:48:42 AM 55.0581 -7.1909 297° West 462 532 34,500 -2,368 Descending FlightAware UK
Wed 04:49:00 AM 55.0738 -7.2444 297° West 462 532 34,500 4,500 Level FlightAware UK
Wed 04:49:02 AM 55.0690 -7.2350 297° West 417 480 36,000  Climbing FlightAware ADS-B
Wed 04:49:18 AM 55.0895 -7.2981 297° West 462 532 34,500 -2,647 Descending FlightAware UK
Wed 04:49:36 AM 55.1053 -7.3518 297° West 462 532 34,500  Level FlightAware UK
Wed 04:49:54 AM 55.1210 -7.4057 297° West 464 534 34,500 2,903 Level FlightAware UK
Wed 04:50:07 AM 55.1260 -7.4290 297° West 415 478 36,000  Climbing FlightAware ADS-B
Wed 04:50:12 AM 55.1367 -7.4590 297° West 464 534 34,500 -5,294 Descending FlightAware UK
Wed 04:50:24 AM 55.1472 -7.4950 297° West 462 532 34,500  Level FlightAware UK
Wed 04:50:42 AM 55.1628 -7.5491 297° West 462 532 34,500 2,727 Level FlightAware UK
Wed 04:50:57 AM 55.1710 -7.5820 297° West 415 478 36,000  Climbing FlightAware ADS-B
Wed 04:51:12 AM 55.1889 -7.6392 297° West 460 529 34,500 -2,727 Descending FlightAware UK
Wed 04:51:30 AM 55.2045 -7.6934 297° West 458 527 34,500 4,500 Level FlightAware UK
Wed 04:51:32 AM 55.2030 -7.6920 297° West 416 479 36,000  Climbing FlightAware ADS-B
Wed 04:51:48 AM 55.2201 -7.7477 297° West 460 529 34,500 -2,647 Descending FlightAware UK
Wed 04:52:06 AM 55.2357 -7.8021 297° West 460 529 34,500 2,647 Level FlightAware UK
Wed 04:52:22 AM 55.2420 -7.8290 297° West 417 480 36,000  Climbing FlightAware ADS-B
Wed 04:52:42 AM 55.2669 -7.9112 297° West 464 534 34,500  Descending FlightAware UK
Wed 04:52:57 AM 55.2730 -7.9370 297° West 419 482 36,000  Climbing FlightAware ADS-B
Wed 04:53:00 AM 55.2825 -7.9659 297° West 464 534 34,500 -6,000 Descending FlightAware UK
Wed 04:53:12 AM 55.2930 -8.0025 297° West 466 536 34,500  Level FlightAware UK
Wed 04:53:30 AM 55.3086 -8.0575 297° West 466 536 34,500 2,571 Level FlightAware UK
Wed 04:53:47 AM 55.3160 -8.0870 297° West 420 483 36,000  Climbing FlightAware ADS-B
Wed 04:54:06 AM 55.3398 -8.1676 297° West 468 539 34,500 -2,432 Descending FlightAware UK
Wed 04:54:24 AM 55.3553 -8.2227 296° West 466 536 34,500 4,286 Level FlightAware UK
Wed 04:54:27 AM 55.3510 -8.2100 296° West 418 481 36,000  Climbing FlightAware ADS-B
Wed 04:54:42 AM 55.3708 -8.2775 296° West 464 534 34,500 -2,727 Descending FlightAware UK
Wed 04:55:00 AM 55.3862 -8.3323 296° West 462 532 34,500 4,500 Level FlightAware UK
Wed 04:55:02 AM 55.3850 -8.3310 296° West 416 479 36,000  Climbing FlightAware ADS-B
Wed 04:55:18 AM 55.4015 -8.3870 296° West 462 532 34,500 -2,647 Descending FlightAware UK
Wed 04:55:36 AM 55.4167 -8.4417 296° West 460 529 34,500 2,647 Level FlightAware UK
Wed 04:55:52 AM 55.4270 -8.4830 296° West 415 478 36,000  Climbing FlightAware ADS-B
Wed 04:56:12 AM 55.4472 -8.5509 296° West 460 529 34,500  Descending FlightAware UK
Wed 04:56:27 AM 55.4580 -8.5940 296° West 414 476 36,000  Climbing FlightAware ADS-B
Wed 04:56:30 AM 55.4623 -8.6056 296° West 460 529 34,500 -6,000 Descending FlightAware UK
Wed 04:56:42 AM 55.4724 -8.6420 296° West 458 527 34,500  Level FlightAware UK
Wed 04:57:00 AM 55.4874 -8.6967 296° West 458 527 34,500 2,571 Level FlightAware UK
Wed 04:57:17 AM 55.4980 -8.7370 296° West 414 476 36,000  Climbing FlightAware ADS-B
Wed 04:57:36 AM 55.5174 -8.8058 296° West 458 527 34,500 -2,432 Descending FlightAware UK
Wed 04:57:54 AM 55.5326 -8.8607 296° West 458 527 34,500 4,286 Level FlightAware UK
Wed 04:57:57 AM 55.5340 -8.8680 296° West 418 481 36,000  Climbing FlightAware ADS-B
Wed 04:58:12 AM 55.5476 -8.9159 296° West 458 527 34,500 -2,727 Descending FlightAware UK
Wed 04:58:30 AM 55.5627 -8.9711 296° West 458 527 34,500 3,600 Level FlightAware UK
Wed 04:58:37 AM 55.5670 -8.9910 296° West 420 483 36,000 1,731 Climbing FlightAware ADS-B
Wed 04:59:22 AM 55.6040 -9.1260 296° West 422 486 36,000  Level FlightAware ADS-B
Wed 05:00:02 AM 55.6380 -9.2510 296° West 423 487 36,000  Level FlightAware ADS-B
Wed 05:00:47 AM 55.6750 -9.3880 296° West 424 488 36,000  Level FlightAware ADS-B
Wed 05:01:27 AM 55.7080 -9.5120 295° West 426 490 36,000  Level FlightAware ADS-B
Wed 05:02:07 AM 55.7430 -9.6440 295° West 429 494 36,000  Level FlightAware ADS-B
Wed 05:02:52 AM 55.7820 -9.7930 295° West 429 494 36,000  Level FlightAware ADS-B
Wed 05:03:37 AM 55.8190 -9.9360 295° West 432 497 36,000  Level FlightAware ADS-B
Wed 05:04:07 AM 55.8460 -10.0380 295° West 434 499 36,000  Level FlightAware ADS-B
Wed 05:04:57 AM 55.8880 -10.2010 295° West 438 504 36,000  Level FlightAware ADS-B
Wed 05:05:37 AM 55.9220 -10.3350 294° West 441 507 36,000  Level FlightAware ADS-B
Wed 05:06:12 AM 55.9520 -10.4510 295° West 442 509 36,000  Level FlightAware ADS-B
Wed 05:07:02 AM 55.9940 -10.6150 295° West 444 511 36,000  Level FlightAware ADS-B
Wed 05:08:02 AM 56.0040 -10.6580 293° West 448 516 36,000  Level FlightAware ADS-B
Wed 05:08:37 AM 56.0740 -10.9350 294° West 447 514 36,000  Level FlightAware ADS-B
Wed 05:09:17 AM 56.1050 -11.0640 293° West 450 518 36,000  Level FlightAware ADS-B
Wed 05:09:57 AM 56.1360 -11.1910 294° West 450 518 36,000  Level FlightAware ADS-B
Wed 05:12:00 AM 56.1604 -11.5833 277° West  Level Estimated
Wed 05:12:42 AM 56.2740 -11.7570 277° West 452 520 36,000  Level FlightAware ADS-B
Wed 05:14:12 AM 56.3500 -12.0770 293° West 455 524 36,000  Level FlightAware ADS-B
Wed 05:15:02 AM 56.3850 -12.2260 293° West 455 524 36,000  Level FlightAware ADS-B
Wed 05:15:42 AM 56.4130 -12.3450 293° West 455 524 36,000  Level FlightAware ADS-B
Wed 05:16:22 AM 56.4410 -12.4640 293° West 455 524 36,000  Level FlightAware ADS-B
Wed 05:17:02 AM 56.4690 -12.5830 293° West 455 524 36,000  Level FlightAware ADS-B
Wed 05:17:42 AM 56.4970 -12.7020 293° West 455 524 36,000  Level FlightAware ADS-B
Wed 05:18:32 AM 56.5320 -12.8520 293° West 455 524 36,000  Level FlightAware ADS-B
Wed 05:19:12 AM 56.5600 -12.9710 293° West 455 524 36,000  Level FlightAware ADS-B
Wed 05:19:52 AM 56.5880 -13.0910 293° West 455 524 36,000  Level FlightAware ADS-B
Wed 05:20:32 AM 56.6160 -13.2100 293° West 455 524 36,000  Level FlightAware ADS-B
Wed 05:21:12 AM 56.6430 -13.3300 292° West 455 524 36,000  Level FlightAware ADS-B
Wed 05:22:02 AM 56.6780 -13.4800 293° West 455 524 36,000  Level FlightAware ADS-B
Wed 05:22:42 AM 56.7060 -13.6000 293° West 455 524 36,000  Level FlightAware ADS-B
Wed 05:23:22 AM 56.7340 -13.7200 293° West 455 524 36,000  Level FlightAware ADS-B
Wed 05:25:00 AM 56.7455 -14.0388 274° West  Level Estimated
Wed 05:26:00 AM 56.7522 -14.2340 274° West  Level Estimated
Wed 05:27:00 AM 56.7585 -14.4294 273° West  Level Estimated
Wed 05:28:00 AM 56.7645 -14.6248 273° West  Level Estimated
Wed 05:29:00 AM 56.7702 -14.8202 273° West  Level Estimated
Wed 05:30:00 AM 56.7757 -15.0157 273° West  Level Estimated
Wed 05:31:00 AM 56.7811 -15.2217 273° West  Level Estimated
Wed 05:32:00 AM 56.7861 -15.4276 273° West  Level Estimated
Wed 05:33:00 AM 56.7908 -15.6337 272° West  Level Estimated
Wed 05:34:00 AM 56.7952 -15.8397 272° West  Level Estimated
Wed 05:35:00 AM 56.7992 -16.0459 272° West  Level Estimated
Wed 05:36:00 AM 56.8028 -16.2520 272° West  Level Estimated
Wed 05:37:00 AM 56.8062 -16.4582 272° West  Level Estimated
Wed 05:38:00 AM 56.8092 -16.6645 272° West  Level Estimated
Wed 05:39:00 AM 56.8119 -16.8707 271° West  Level Estimated
Wed 05:40:00 AM 56.8142 -17.0770 271° West  Level Estimated
Wed 05:41:00 AM 56.8162 -17.2833 271° West  Level Estimated
Wed 05:42:00 AM 56.8178 -17.4897 271° West  Level Estimated
Wed 05:43:00 AM 56.8191 -17.6961 271° West  Level Estimated
Wed 05:44:00 AM 56.8200 -17.9024 271° West  Level Estimated
Wed 05:45:00 AM 56.8207 -18.1088 270° West  Level Estimated
Wed 05:46:00 AM 56.8209 -18.3152 270° West  Level Estimated
Wed 05:47:00 AM 56.8209 -18.5216 270° West  Level Estimated
Wed 05:48:00 AM 56.8205 -18.7279 270° West  Level Estimated
Wed 05:49:00 AM 56.8198 -18.9343 270° West  Level Estimated
Wed 05:50:00 AM 56.8187 -19.1407 270° West  Level Estimated
Wed 05:51:00 AM 56.8172 -19.3470 269° West  Level Estimated
Wed 05:52:00 AM 56.8155 -19.5534 269° West  Level Estimated
Wed 05:53:00 AM 58.0000 -20.0000 274° West 443 510 36,000  Level ETMS Enhanced Traffic Management System
Wed 05:53:00 AM 56.8134 -19.7597 269° West  Level Estimated
Wed 05:54:00 AM 56.8110 -19.9660 269° West  Level Estimated
Wed 05:55:00 AM 56.8082 -20.1722 269° West  Level Estimated
Wed 05:56:00 AM 56.8050 -20.3784 269° West  Level Estimated
Wed 05:57:00 AM 56.8016 -20.5846 268° West  Level Estimated
Wed 05:58:00 AM 56.7977 -20.7908 268° West  Level Estimated
Wed 05:59:00 AM 58.0649 -22.0895 272° West 443 510 36,000  Level FlightAware Transoceanic
Wed 06:00:00 AM 58.0700 -22.3221 272° West 443 510 36,000  Level FlightAware Transoceanic
Wed 06:01:00 AM 58.0747 -22.5547 272° West 443 510 36,000  Level FlightAware Transoceanic
Wed 06:02:00 AM 58.0789 -22.7874 272° West 443 510 36,000  Level FlightAware Transoceanic
Wed 06:03:00 AM 58.0827 -23.0202 272° West 443 510 36,000  Level FlightAware Transoceanic
Wed 06:04:00 AM 58.0861 -23.2530 271° West 443 510 36,000  Level FlightAware Transoceanic
Wed 06:05:00 AM 58.0891 -23.4859 271° West 443 510 36,000  Level FlightAware Transoceanic
Wed 06:06:00 AM 58.0917 -23.7187 271° West 443 510 36,000  Level FlightAware Transoceanic
Wed 06:07:00 AM 58.0938 -23.9517 271° West 443 510 36,000  Level FlightAware Transoceanic
Wed 06:08:00 AM 58.0955 -24.1846 271° West 443 510 36,000  Level FlightAware Transoceanic
Wed 06:09:00 AM 58.0968 -24.4175 270° West 443 510 36,000  Level FlightAware Transoceanic
Wed 06:10:00 AM 58.0976 -24.6505 270° West 443 510 36,000  Level FlightAware Transoceanic
Wed 06:11:00 AM 58.0980 -24.8835 270° West 443 510 36,000  Level FlightAware Transoceanic
Wed 06:12:00 AM 58.0980 -25.1165 270° West 443 510 36,000  Level FlightAware Transoceanic
Wed 06:13:00 AM 58.0976 -25.3495 270° West 443 510 36,000  Level FlightAware Transoceanic
Wed 06:14:00 AM 58.0968 -25.5825 270° West 443 510 36,000  Level FlightAware Transoceanic
Wed 06:15:00 AM 58.0955 -25.8154 269° West 443 510 36,000  Level FlightAware Transoceanic
Wed 06:16:00 AM 58.0938 -26.0483 269° West 443 510 36,000  Level FlightAware Transoceanic
Wed 06:17:00 AM 58.0917 -26.2813 269° West 443 510 36,000  Level FlightAware Transoceanic
Wed 06:18:00 AM 58.0891 -26.5141 269° West 443 510 36,000  Level FlightAware Transoceanic
Wed 06:19:00 AM 58.0861 -26.7470 269° West 443 510 36,000  Level FlightAware Transoceanic
Wed 06:20:00 AM 58.0827 -26.9798 268° West 443 510 36,000  Level FlightAware Transoceanic
Wed 06:21:00 AM 58.0789 -27.2126 268° West 443 510 36,000  Level FlightAware Transoceanic
Wed 06:22:00 AM 58.0747 -27.4453 268° West 443 510 36,000  Level FlightAware Transoceanic
Wed 06:23:00 AM 58.0700 -27.6779 268° West 443 510 36,000  Level FlightAware Transoceanic
Wed 06:24:00 AM 58.0649 -27.9105 268° West 443 510 36,000  Level FlightAware Transoceanic
Wed 06:25:00 AM 58.0594 -28.1430 267° West 443 510 36,000  Level FlightAware Transoceanic
Wed 06:26:00 AM 58.0534 -28.3755 267° West 443 510 36,000  Level FlightAware Transoceanic
Wed 06:27:00 AM 58.0471 -28.6078 267° West 443 510 36,000  Level FlightAware Transoceanic
Wed 06:28:00 AM 58.0403 -28.8401 267° West 443 510 36,000  Level FlightAware Transoceanic
Wed 06:29:00 AM 58.0331 -29.0723 267° West 443 510 36,000  Level FlightAware Transoceanic
Wed 06:30:00 AM 58.0254 -29.3044 266° West 443 510 36,000  Level FlightAware Transoceanic
Wed 06:31:00 AM 58.0174 -29.5364 266° West 443 510 36,000  Level FlightAware Transoceanic
Wed 06:32:00 AM 58.0089 -29.7682 266° West 443 510 36,000  Level FlightAware Transoceanic
Wed 06:33:00 AM 58.0008 -29.9808 266° West  Level FlightAware Approximate
Wed 06:34:00 AM 57.9923 -30.1933 266° West  Level FlightAware Approximate
Wed 06:35:00 AM 58.0067 -30.1743 274° West  Level FlightAware Approximate
Wed 06:35:00 AM 58.0000 -30.0000 274° West 443 510 36,000  Level ETMS Enhanced Traffic Management System
Wed 06:36:00 AM 58.0146 -30.3869 274° West  Level FlightAware Approximate
Wed 06:37:00 AM 58.0221 -30.5997 274° West  Level FlightAware Approximate
Wed 06:38:00 AM 58.0293 -30.8126 274° West  Level FlightAware Approximate
Wed 06:39:00 AM 58.0362 -31.0255 274° West  Level FlightAware Approximate
Wed 06:40:00 AM 58.0426 -31.2385 273° West  Level FlightAware Approximate
Wed 06:41:00 AM 58.0594 -31.8570 273° West 443 510 36,000  Level FlightAware Transoceanic
Wed 06:42:00 AM 58.0649 -32.0895 272° West 443 510 36,000  Level FlightAware Transoceanic
Wed 06:43:00 AM 58.0700 -32.3221 272° West 443 510 36,000  Level FlightAware Transoceanic
Wed 06:44:00 AM 58.0747 -32.5547 272° West 443 510 36,000  Level FlightAware Transoceanic
Wed 06:45:00 AM 58.0789 -32.7874 272° West 443 510 36,000  Level FlightAware Transoceanic
Wed 06:46:00 AM 58.0827 -33.0202 272° West 443 510 36,000  Level FlightAware Transoceanic
Wed 06:47:00 AM 58.0861 -33.2530 271° West 443 510 36,000  Level FlightAware Transoceanic
Wed 06:48:00 AM 58.0891 -33.4859 271° West 443 510 36,000  Level FlightAware Transoceanic
Wed 06:49:00 AM 58.0917 -33.7187 271° West 443 510 36,000  Level FlightAware Transoceanic
Wed 06:50:00 AM 58.0938 -33.9516 271° West 443 510 36,000  Level FlightAware Transoceanic
Wed 06:51:00 AM 58.0955 -34.1846 271° West 443 510 36,000  Level FlightAware Transoceanic
Wed 06:52:00 AM 58.0968 -34.4175 270° West 443 510 36,000  Level FlightAware Transoceanic
Wed 06:53:00 AM 58.0976 -34.6505 270° West 443 510 36,000  Level FlightAware Transoceanic
Wed 06:54:00 AM 58.0980 -34.8835 270° West 443 510 36,000  Level FlightAware Transoceanic
Wed 06:55:00 AM 58.0980 -35.1165 270° West 443 510 36,000  Level FlightAware Transoceanic
Wed 06:56:00 AM 58.0976 -35.3495 270° West 443 510 36,000  Level FlightAware Transoceanic
Wed 06:57:00 AM 58.0968 -35.5825 270° West 443 510 36,000  Level FlightAware Transoceanic
Wed 06:58:00 AM 58.0955 -35.8154 269° West 443 510 36,000  Level FlightAware Transoceanic
Wed 06:59:00 AM 58.0938 -36.0484 269° West 443 510 36,000  Level FlightAware Transoceanic
Wed 07:00:00 AM 58.0917 -36.2813 269° West 443 510 36,000  Level FlightAware Transoceanic
Wed 07:01:00 AM 58.0891 -36.5141 269° West 443 510 36,000  Level FlightAware Transoceanic
Wed 07:02:00 AM 58.0861 -36.7470 269° West 443 510 36,000  Level FlightAware Transoceanic
Wed 07:03:00 AM 58.0827 -36.9798 268° West 443 510 36,000  Level FlightAware Transoceanic
Wed 07:04:00 AM 58.0789 -37.2126 268° West 443 510 36,000  Level FlightAware Transoceanic
Wed 07:05:00 AM 58.0747 -37.4453 268° West 443 510 36,000  Level FlightAware Transoceanic
Wed 07:06:00 AM 58.0700 -37.6779 268° West 443 510 36,000  Level FlightAware Transoceanic
Wed 07:07:00 AM 58.0649 -37.9105 268° West 443 510 36,000  Level FlightAware Transoceanic
Wed 07:08:00 AM 58.0594 -38.1430 267° West 443 510 36,000  Level FlightAware Transoceanic
Wed 07:09:00 AM 58.0534 -38.3755 267° West 443 510 36,000  Level FlightAware Transoceanic
Wed 07:10:00 AM 58.0471 -38.6078 267° West 443 510 36,000  Level FlightAware Transoceanic
Wed 07:11:00 AM 58.0403 -38.8401 267° West 443 510 36,000  Level FlightAware Transoceanic
Wed 07:12:00 AM 58.0331 -39.0723 267° West 443 510 36,000  Level FlightAware Transoceanic
Wed 07:13:00 AM 58.0254 -39.3044 266° West 443 510 36,000  Level FlightAware Transoceanic
Wed 07:14:00 AM 58.0174 -39.5364 266° West 443 510 36,000  Level FlightAware Transoceanic
Wed 07:15:00 AM 58.0089 -39.7682 266° West 443 510 36,000 200 Level FlightAware Transoceanic
Wed 07:16:00 AM 58.0008 -39.9808 266° West  Level FlightAware Approximate
Wed 07:17:00 AM 57.9923 -40.1934 266° West  Level FlightAware Approximate
Wed 07:18:00 AM 57.9897 -40.1736 264° West  Level FlightAware Approximate
Wed 07:19:00 AM 57.9769 -40.3853 264° West  Level FlightAware Approximate
Wed 07:19:00 AM 58.0000 -40.0000 264° West 409 471 37,000  Level ETMS Enhanced Traffic Management System
Wed 07:20:00 AM 57.9637 -40.5968 263° West  Level FlightAware Approximate
Wed 07:21:00 AM 57.9501 -40.8081 263° West  Level FlightAware Approximate
Wed 07:22:00 AM 57.9362 -41.0193 263° West  Level FlightAware Approximate
Wed 07:23:00 AM 57.9220 -41.2303 263° West  Level FlightAware Approximate
Wed 07:24:00 AM 57.9074 -41.4411 263° West  Level FlightAware Approximate
Wed 07:25:00 AM 57.8888 -41.7018 262° West 409 471 37,000  Level FlightAware Transoceanic
Wed 07:26:00 AM 57.8733 -41.9137 262° West 409 471 37,000  Level FlightAware Transoceanic
Wed 07:27:00 AM 57.8575 -42.1255 262° West 409 471 37,000  Level FlightAware Transoceanic
Wed 07:28:00 AM 57.8413 -42.3371 262° West 409 471 37,000  Level FlightAware Transoceanic
Wed 07:29:00 AM 57.8247 -42.5484 262° West 409 471 37,000  Level FlightAware Transoceanic
Wed 07:30:00 AM 57.8078 -42.7596 261° West 409 471 37,000  Level FlightAware Transoceanic
Wed 07:31:00 AM 57.7906 -42.9706 261° West 409 471 37,000  Level FlightAware Transoceanic
Wed 07:32:00 AM 57.7730 -43.1814 261° West 409 471 37,000  Level FlightAware Transoceanic
Wed 07:33:00 AM 57.7550 -43.3920 261° West 409 471 37,000  Level FlightAware Transoceanic
Wed 07:34:00 AM 57.7367 -43.6023 261° West 409 471 37,000  Level FlightAware Transoceanic
Wed 07:35:00 AM 57.7181 -43.8125 260° West 409 471 37,000  Level FlightAware Transoceanic
Wed 07:36:00 AM 57.6991 -44.0224 260° West 409 471 37,000  Level FlightAware Transoceanic
Wed 07:37:00 AM 57.6797 -44.2321 260° West 409 471 37,000  Level FlightAware Transoceanic
Wed 07:38:00 AM 57.6600 -44.4416 260° West 409 471 37,000  Level FlightAware Transoceanic
Wed 07:39:00 AM 57.6400 -44.6509 260° West 409 471 37,000  Level FlightAware Transoceanic
Wed 07:40:00 AM 57.6196 -44.8599 260° West 409 471 37,000  Level FlightAware Transoceanic
Wed 07:41:00 AM 57.5989 -45.0687 259° West 409 471 37,000  Level FlightAware Transoceanic
Wed 07:42:00 AM 57.5778 -45.2772 259° West 409 471 37,000  Level FlightAware Transoceanic
Wed 07:43:00 AM 57.5564 -45.4855 259° West 409 471 37,000  Level FlightAware Transoceanic
Wed 07:44:00 AM 57.5346 -45.6936 259° West 409 471 37,000  Level FlightAware Transoceanic
Wed 07:45:00 AM 57.5126 -45.9014 259° West 409 471 37,000  Level FlightAware Transoceanic
Wed 07:46:00 AM 57.4901 -46.1089 259° West 409 471 37,000  Level FlightAware Transoceanic
Wed 07:47:00 AM 57.4673 -46.3162 258° West 409 471 37,000  Level FlightAware Transoceanic
Wed 07:48:00 AM 57.4442 -46.5233 258° West 409 471 37,000  Level FlightAware Transoceanic
Wed 07:49:00 AM 57.4208 -46.7300 258° West 409 471 37,000  Level FlightAware Transoceanic
Wed 07:50:00 AM 57.3970 -46.9365 258° West 409 471 37,000  Level FlightAware Transoceanic
Wed 07:51:00 AM 57.3728 -47.1428 258° West 409 471 37,000  Level FlightAware Transoceanic
Wed 07:52:00 AM 57.3484 -47.3487 257° West 409 471 37,000  Level FlightAware Transoceanic
Wed 07:53:00 AM 57.3236 -47.5544 257° West 409 471 37,000  Level FlightAware Transoceanic
Wed 07:54:00 AM 57.2984 -47.7598 257° West 409 471 37,000  Level FlightAware Transoceanic
Wed 07:55:00 AM 57.2729 -47.9650 257° West 409 471 37,000  Level FlightAware Transoceanic
Wed 07:56:00 AM 57.2471 -48.1698 257° West 409 471 37,000  Level FlightAware Transoceanic
Wed 07:57:00 AM 57.2210 -48.3743 257° West 409 471 37,000  Level FlightAware Transoceanic
Wed 07:58:00 AM 57.1945 -48.5786 256° West 409 471 37,000  Level FlightAware Transoceanic
Wed 07:59:00 AM 57.1677 -48.7826 256° West 409 471 37,000  Level FlightAware Transoceanic
Wed 08:00:00 AM 57.1406 -48.9862 256° West 409 471 37,000  Level FlightAware Transoceanic
Wed 08:01:00 AM 57.1131 -49.1896 256° West 409 471 37,000  Level FlightAware Transoceanic
Wed 08:02:00 AM 57.0853 -49.3927 256° West 409 471 37,000  Level FlightAware Transoceanic
Wed 08:03:00 AM 57.0572 -49.5954 256° West 409 471 37,000  Level FlightAware Transoceanic
Wed 08:04:00 AM 57.0288 -49.7979 255° West 409 471 37,000 100 Level FlightAware Transoceanic
Wed 08:05:00 AM 57.0002 -49.9986 255° West  Level FlightAware Approximate
Wed 08:06:00 AM 56.9720 -50.1993 256° West  Level FlightAware Approximate
Wed 08:07:00 AM 56.9654 -50.1942 252° West  Level FlightAware Approximate
Wed 08:08:00 AM 56.9299 -50.3908 252° West  Level FlightAware Approximate
Wed 08:09:00 AM 56.8941 -50.5870 252° West  Level FlightAware Approximate
Wed 08:10:00 AM 56.8581 -50.7829 251° West  Level FlightAware Approximate
Wed 08:11:00 AM 56.8217 -50.9784 251° West  Level FlightAware Approximate
Wed 08:12:00 AM 56.7850 -51.1735 251° West  Level FlightAware Approximate
Wed 08:13:00 AM 56.7480 -51.3682 251° West  Level FlightAware Approximate
Wed 08:14:00 AM 56.7107 -51.5625 251° West  Level FlightAware Approximate
Wed 08:15:00 AM 56.6731 -51.7565 251° West  Level FlightAware Approximate
Wed 08:16:00 AM 56.6352 -51.9501 250° West  Level FlightAware Approximate
Wed 08:17:00 AM 56.5970 -52.1432 250° West  Level FlightAware Approximate
Wed 08:18:00 AM 56.5586 -52.3360 250° West  Level FlightAware Approximate
Wed 08:19:00 AM 56.5198 -52.5284 250° West  Level FlightAware Approximate
Wed 08:20:00 AM 56.4807 -52.7204 250° West  Level FlightAware Approximate
Wed 08:21:00 AM 56.4413 -52.9120 250° West  Level FlightAware Approximate
Wed 08:22:00 AM 56.4016 -53.1032 250° West  Level FlightAware Approximate
Wed 08:23:00 AM 56.3617 -53.2940 249° West  Level FlightAware Approximate
Wed 08:23:00 AM 57.0000 -50.0000 252° West 416 479 39,000  Level ETMS Enhanced Traffic Management System
Wed 08:24:00 AM 56.3214 -53.4844 249° West  Level FlightAware Approximate
Wed 08:25:00 AM 56.2808 -53.6744 249° West  Level FlightAware Approximate
Wed 08:26:00 AM 56.2400 -53.8640 249° West  Level FlightAware Approximate
Wed 08:27:00 AM 56.1989 -54.0531 249° West  Level FlightAware Approximate
Wed 08:28:00 AM 56.1575 -54.2419 249° West  Level FlightAware Approximate
Wed 08:29:00 AM 56.1157 -54.4303 248° West  Level FlightAware Approximate
Wed 08:30:00 AM 56.0549 -54.7387 248° West 416 479 39,000  Level FlightAware Transoceanic
Wed 08:31:00 AM 56.0116 -54.9310 248° West 416 479 39,000  Level FlightAware Transoceanic
Wed 08:32:00 AM 55.9681 -55.1227 248° West 416 479 39,000  Level FlightAware Transoceanic
Wed 08:33:00 AM 55.9243 -55.3141 248° West 416 479 39,000  Level FlightAware Transoceanic
Wed 08:34:00 AM 55.8802 -55.5050 248° West 416 479 39,000  Level FlightAware Transoceanic
Wed 08:35:00 AM 55.8358 -55.6955 247° West 416 479 39,000  Level FlightAware Transoceanic
Wed 08:36:00 AM 55.7910 -55.8856 247° West 416 479 39,000  Level FlightAware Transoceanic
Wed 08:37:00 AM 55.7460 -56.0752 247° West 416 479 39,000  Level FlightAware Transoceanic
Wed 08:38:00 AM 55.7007 -56.2644 247° West 416 479 39,000  Level FlightAware Transoceanic
Wed 08:39:00 AM 55.6552 -56.4531 247° West 416 479 39,000  Level FlightAware Transoceanic
Wed 08:40:00 AM 55.6093 -56.6414 247° West 416 479 39,000  Level FlightAware Transoceanic
Wed 08:41:00 AM 55.5631 -56.8293 246° West 416 479 39,000  Level FlightAware Transoceanic
Wed 08:42:00 AM 55.4856 -56.9645 225° Southwest  Level Estimated
Wed 08:43:00 AM 55.4080 -57.0993 225° Southwest  Level Estimated
Wed 08:44:00 AM 55.3302 -57.2335 224° Southwest  Level Estimated
Wed 08:44:16 AM 55.4000 -57.2500 224° Southwest 420 483 39,000  Level Moncton Center
Wed 08:45:00 AM 55.2523 -57.3672 224° Southwest  Level Estimated
Wed 08:45:16 AM 55.3167 -57.4167 229° Southwest 420 483 39,000  Level Moncton Center
Wed 08:46:00 AM 55.1742 -57.5004 224° Southwest  Level Estimated
Wed 08:46:16 AM 55.2667 -57.5667 240° Southwest 420 483 39,000  Level Moncton Center
Wed 08:47:00 AM 55.0960 -57.6330 224° Southwest  Level Estimated
Wed 08:47:16 AM 55.1833 -57.7333 229° Southwest 420 483 39,000  Level Moncton Center
Wed 08:48:00 AM 55.0176 -57.7652 224° Southwest  Level Estimated
Wed 08:48:16 AM 55.1167 -57.8833 232° Southwest 420 483 39,000  Level Moncton Center
Wed 08:49:00 AM 54.9391 -57.8968 224° Southwest  Level Estimated
Wed 08:49:16 AM 55.0500 -58.0333 232° Southwest 420 483 39,000  Level Moncton Center
Wed 08:50:16 AM 54.9667 -58.2000 229° Southwest 420 483 39,000  Level Moncton Center
Wed 08:51:16 AM 54.9000 -58.3500 232° Southwest 420 483 39,000  Level Moncton Center
Wed 08:52:16 AM 54.8167 -58.5333 232° Southwest 420 483 39,000  Level Moncton Center
Wed 08:53:16 AM 54.7500 -58.6667 229° Southwest 420 483 39,000  Level Moncton Center
Wed 08:54:16 AM 54.6833 -58.8167 232° Southwest 420 483 39,000  Level Moncton Center
Wed 08:55:16 AM 54.6167 -59.0000 238° Southwest 420 483 39,000  Level Moncton Center
Wed 08:56:16 AM 54.5333 -59.1500 226° Southwest 420 483 39,000  Level Moncton Center
Wed 08:57:16 AM 54.4500 -59.3167 229° Southwest 420 483 39,000  Level Moncton Center
Wed 08:58:16 AM 54.3833 -59.4667 233° Southwest 420 483 39,000  Level Moncton Center
Wed 08:59:16 AM 54.3000 -59.6167 226° Southwest 430 495 39,000  Level Moncton Center
Wed 09:00:16 AM 54.2167 -59.7667 226° Southwest 430 495 39,000  Level Moncton Center
Wed 09:01:16 AM 54.1500 -59.9500 238° Southwest 430 495 39,000  Level Moncton Center
Wed 09:02:16 AM 54.0667 -60.0667 219° Southwest 430 495 39,000  Level Moncton Center
Wed 09:03:16 AM 53.9833 -60.2500 232° Southwest 430 495 39,000  Level Moncton Center
Wed 09:04:16 AM 53.9167 -60.4000 233° Southwest 430 495 39,000  Level Moncton Center
Wed 09:05:16 AM 53.8333 -60.5500 227° Southwest 430 495 39,000  Level Moncton Center
Wed 09:06:16 AM 53.7500 -60.7000 227° Southwest 430 495 39,000  Level Moncton Center
Wed 09:07:16 AM 53.6667 -60.8333 223° Southwest 430 495 39,000  Level Moncton Center
Wed 09:08:16 AM 53.6000 -60.9833 233° Southwest 430 495 39,000  Level Moncton Center
Wed 09:09:16 AM 53.5167 -61.1333 227° Southwest 430 495 39,000  Level Moncton Center
Wed 09:10:16 AM 53.4333 -61.3167 233° Southwest 430 495 39,000  Level Moncton Center
Wed 09:11:16 AM 53.3500 -61.4500 224° Southwest 430 495 39,000  Level Moncton Center
Wed 09:12:16 AM 53.2500 -61.6000 222° Southwest 430 495 39,000  Level Moncton Center
Wed 09:13:16 AM 53.2000 -61.7500 241° Southwest 430 495 39,000  Level Moncton Center
Wed 09:14:16 AM 53.1000 -61.8833 219° Southwest 430 495 39,000  Level Moncton Center
Wed 09:15:16 AM 53.0167 -62.0333 227° Southwest 430 495 39,000  Level Moncton Center
Wed 09:16:16 AM 52.9333 -62.2000 230° Southwest 430 495 39,000  Level Moncton Center
Wed 09:17:16 AM 52.8500 -62.3500 227° Southwest 430 495 39,000  Level Moncton Center
Wed 09:18:16 AM 52.7667 -62.4833 224° Southwest 430 495 39,000  Level Moncton Center
Wed 09:19:16 AM 52.6833 -62.6333 228° Southwest 430 495 39,000  Level Moncton Center
Wed 09:20:16 AM 52.6167 -62.7667 231° Southwest 430 495 39,000  Level Moncton Center
Wed 09:21:16 AM 52.5333 -62.9167 228° Southwest 430 495 39,000  Level Moncton Center
Wed 09:22:16 AM 52.4500 -63.0500 224° Southwest 440 506 39,000  Level Moncton Center
Wed 09:23:16 AM 52.3667 -63.2167 231° Southwest 440 506 39,000  Level Moncton Center
Wed 09:24:16 AM 52.2833 -63.3500 224° Southwest 440 506 39,000  Level Moncton Center
Wed 09:25:16 AM 52.2000 -63.5000 228° Southwest 440 506 39,000  Level Moncton Center
Wed 09:26:16 AM 52.1167 -63.6333 225° Southwest 440 506 39,000  Level Moncton Center
Wed 09:27:16 AM 52.0333 -63.7667 225° Southwest 440 506 39,000  Level Moncton Center
Wed 09:28:16 AM 51.9333 -63.9333 226° Southwest 440 506 39,000  Level Moncton Center
Wed 09:29:16 AM 51.8667 -64.0667 231° Southwest 440 506 39,000  Level Moncton Center
Wed 09:30:16 AM 51.7667 -64.2000 220° Southwest 430 495 39,000  Level Moncton Center
Wed 09:31:16 AM 51.6833 -64.3500 228° Southwest 430 495 39,000  Level Moncton Center
Wed 09:32:16 AM 51.6000 -64.4833 225° Southwest 430 495 39,000  Level Moncton Center
Wed 09:33:16 AM 51.5167 -64.6167 225° Southwest 430 495 39,000  Level Moncton Center
Wed 09:34:16 AM 51.4333 -64.7500 225° Southwest 430 495 39,000  Level Moncton Center
Wed 09:35:16 AM 51.3500 -64.8833 225° Southwest 420 483 39,000  Level Moncton Center
Wed 09:36:16 AM 51.2833 -65.0167 231° Southwest 420 483 39,000  Level Moncton Center
Wed 09:37:16 AM 51.1833 -65.1500 220° Southwest 420 483 39,000  Level Moncton Center
Wed 09:38:16 AM 51.1000 -65.2833 225° Southwest 430 495 39,000  Level Moncton Center
Wed 09:39:16 AM 51.0167 -65.4333 229° Southwest 420 483 39,000 250 Level Moncton Center
Wed 09:40:16 AM 50.9500 -65.5333 223° Southwest 420 483 39,500 500 Climbing Moncton Center
Wed 09:41:16 AM 50.8500 -65.6667 220° Southwest 420 483 40,000 250 Climbing Moncton Center
Wed 09:42:16 AM 50.7667 -65.8000 225° Southwest 420 483 40,000  Level Moncton Center
Wed 09:43:16 AM 50.6833 -65.9333 225° Southwest 410 472 40,000  Level Moncton Center
Wed 09:44:16 AM 50.6000 -66.0667 225° Southwest 410 472 40,000  Level Moncton Center
Wed 09:45:16 AM 50.5167 -66.1833 222° Southwest 420 483 40,000  Level Moncton Center
Wed 09:46:16 AM 50.4333 -66.3167 226° Southwest 420 483 40,000  Level Moncton Center
Wed 09:47:16 AM 50.3500 -66.4500 226° Southwest 420 483 40,000  Level Moncton Center
Wed 09:48:16 AM 50.2500 -66.5667 217° Southwest 420 483 40,000  Level Moncton Center
Wed 09:49:16 AM 50.1833 -66.6667 224° Southwest 410 472 40,000  Level Moncton Center
Wed 09:50:05 AM 50.1167 -66.7667 224° Southwest 430 495 40,000  Level Montreal Center
Wed 09:51:05 AM 50.0333 -66.8833 222° Southwest 420 483 40,000  Level Montreal Center
Wed 09:52:05 AM 49.9333 -67.0167 221° Southwest 420 483 40,000  Level Montreal Center
Wed 09:53:05 AM 49.8667 -67.1333 228° Southwest 410 472 40,000  Level Montreal Center
Wed 09:54:05 AM 49.7833 -67.2500 222° Southwest 410 472 40,000  Level Montreal Center
Wed 09:55:05 AM 49.7000 -67.3667 222° Southwest 410 472 40,000  Level Montreal Center
Wed 09:56:05 AM 49.6167 -67.4833 222° Southwest 410 472 40,000  Level Montreal Center
Wed 09:57:05 AM 49.5333 -67.6167 226° Southwest 420 483 40,000  Level Montreal Center
Wed 09:58:05 AM 49.4333 -67.7333 217° Southwest 420 483 40,000  Level Montreal Center
Wed 09:59:05 AM 49.3500 -67.8833 230° Southwest 430 495 40,000  Level Montreal Center
Wed 10:00:05 AM 49.2667 -68.0000 222° Southwest 430 495 40,000  Level Montreal Center
Wed 10:01:05 AM 49.1833 -68.1167 222° Southwest 430 495 40,000  Level Montreal Center
Wed 10:02:05 AM 49.0833 -68.2333 217° Southwest 430 495 40,000  Level Montreal Center
Wed 10:03:05 AM 48.9833 -68.3500 217° Southwest 440 506 40,000  Level Montreal Center
Wed 10:04:05 AM 48.8833 -68.4500 213° Southwest 450 518 40,000  Level Montreal Center
Wed 10:09:57 AM 48.2830 -69.0870 213° Southwest 434 499 40,000  Level FlightAware ADS-B
Wed 10:10:52 AM 48.1990 -69.1700 213° Southwest 432 497 40,000  Level FlightAware ADS-B
Wed 10:11:32 AM 48.1260 -69.2430 214° Southwest 431 496 40,000  Level FlightAware ADS-B
Wed 10:12:37 AM 48.0190 -69.3480 213° Southwest 433 498 40,000  Level FlightAware ADS-B
Wed 10:13:22 AM 47.9450 -69.4210 213° Southwest 433 498 40,000  Level FlightAware ADS-B
Wed 10:14:02 AM 47.8780 -69.4860 213° Southwest 436 502 40,000  Level FlightAware ADS-B
Wed 10:14:42 AM 47.8110 -69.5520 213° Southwest 434 499 40,000  Level FlightAware ADS-B
Wed 10:15:27 AM 47.7350 -69.6260 213° Southwest 432 497 40,000  Level FlightAware ADS-B
Wed 10:16:07 AM 47.6690 -69.6900 213° Southwest 432 497 40,000  Level FlightAware ADS-B
Wed 10:16:52 AM 47.5940 -69.7620 213° Southwest 432 497 40,000  Level FlightAware ADS-B
Wed 10:17:32 AM 47.5270 -69.8270 213° Southwest 430 495 40,000  Level FlightAware ADS-B
Wed 10:18:17 AM 47.4520 -69.8990 213° Southwest 431 496 40,000  Level FlightAware ADS-B
Wed 10:18:57 AM 47.3870 -69.9610 213° Southwest 434 499 40,000  Level FlightAware ADS-B
Wed 10:19:37 AM 47.3190 -70.0270 213° Southwest 433 498 40,000  Level FlightAware ADS-B
Wed 10:20:17 AM 47.2520 -70.0900 213° Southwest 432 497 40,000  Level FlightAware ADS-B
Wed 10:21:02 AM 47.1760 -70.1620 213° Southwest 433 498 40,000  Level FlightAware ADS-B
Wed 10:21:42 AM 47.1090 -70.2260 213° Southwest 434 499 40,000  Level FlightAware ADS-B
Wed 10:22:27 AM 47.0340 -70.2970 213° Southwest 434 499 40,000  Level FlightAware ADS-B
Wed 10:23:07 AM 46.9670 -70.3600 213° Southwest 435 501 40,000  Level FlightAware ADS-B
Wed 10:23:52 AM 46.8910 -70.4320 213° Southwest 434 499 40,000  Level FlightAware ADS-B
Wed 10:24:32 AM 46.8230 -70.4950 212° Southwest 434 499 40,000  Level FlightAware ADS-B
Wed 10:25:12 AM 46.7560 -70.5570 212° Southwest 434 499 40,000  Level FlightAware ADS-B
Wed 10:25:57 AM 46.6800 -70.6280 213° Southwest 436 502 40,000  Level FlightAware ADS-B
Wed 10:26:37 AM 46.6120 -70.6910 212° Southwest 438 504 40,000  Level FlightAware ADS-B
Wed 10:27:22 AM 46.5360 -70.7620 213° Southwest 438 504 40,000  Level FlightAware ADS-B
Wed 10:28:02 AM 46.4670 -70.8250 212° Southwest 437 503 40,000  Level FlightAware ADS-B
Wed 10:28:42 AM 46.4000 -70.8870 213° Southwest 434 499 40,000  Level FlightAware ADS-B
Wed 10:29:27 AM 46.3240 -70.9570 212° Southwest 433 498 40,000  Level FlightAware ADS-B
Wed 10:30:07 AM 46.2560 -71.0190 212° Southwest 433 498 40,000  Level FlightAware ADS-B
Wed 10:30:47 AM 46.1880 -71.0800 212° Southwest 432 497 40,000  Level FlightAware ADS-B
Wed 10:31:32 AM 46.1130 -71.1490 213° Southwest 431 496 40,000  Level FlightAware ADS-B
Wed 10:32:12 AM 46.0460 -71.2100 212° Southwest 431 496 40,000  Level FlightAware ADS-B
Wed 10:32:57 AM 45.9710 -71.2770 212° Southwest 430 495 40,000  Level FlightAware ADS-B
Wed 10:33:37 AM 45.9030 -71.3380 212° Southwest 430 495 40,000  Level FlightAware ADS-B
Wed 10:34:22 AM 45.8270 -71.4060 212° Southwest 429 494 40,000  Level FlightAware ADS-B
Wed 10:35:02 AM 45.7600 -71.4660 212° Southwest 429 494 40,000  Level FlightAware ADS-B
Wed 10:35:42 AM 45.6940 -71.5250 212° Southwest 428 493 40,000  Level FlightAware ADS-B
Wed 10:36:27 AM 45.6180 -71.5930 212° Southwest 428 493 40,000  Level FlightAware ADS-B
Wed 10:37:07 AM 45.5510 -71.6520 212° Southwest 428 493 40,000  Level FlightAware ADS-B
Wed 10:37:52 AM 45.4750 -71.7190 212° Southwest 428 493 40,000  Level FlightAware ADS-B
Wed 10:38:32 AM 45.4080 -71.7780 212° Southwest 428 493 40,000  Level FlightAware ADS-B
Wed 10:39:12 AM 45.3410 -71.8360 211° Southwest 429 494 40,000  Level FlightAware ADS-B
Wed 10:39:57 AM 45.2660 -71.9030 212° Southwest 429 494 40,000  Level FlightAware ADS-B
Wed 10:40:37 AM 45.1990 -71.9610 211° Southwest 428 493 40,000  Level FlightAware ADS-B
Wed 10:41:22 AM 45.1230 -72.0270 212° Southwest 429 494 40,000  Level FlightAware ADS-B
Wed 10:42:02 AM 45.0550 -72.0860 212° Southwest 431 496 40,000  Level FlightAware ADS-B
Wed 10:42:42 AM 44.9870 -72.1440 211° Southwest 431 496 40,000  Level FlightAware ADS-B
Wed 10:43:27 AM 44.9110 -72.2100 212° Southwest 431 496 40,000  Level FlightAware ADS-B
Wed 10:44:07 AM 44.8460 -72.2660 211° Southwest 431 496 40,000  Level FlightAware ADS-B
Wed 10:44:47 AM 44.7770 -72.3250 211° Southwest 429 494 40,000  Level FlightAware ADS-B
Wed 10:45:32 AM 44.6960 -72.3940 211° Southwest 427 491 40,000  Level FlightAware ADS-B
Wed 10:46:12 AM 44.6290 -72.4510 211° Southwest 425 489 40,000  Level FlightAware ADS-B
Wed 10:46:57 AM 44.5540 -72.5150 211° Southwest 426 490 40,000  Level FlightAware ADS-B
Wed 10:47:37 AM 44.4900 -72.5690 211° Southwest 428 493 40,000  Level FlightAware ADS-B
Wed 10:48:17 AM 44.4190 -72.6280 211° Southwest 428 493 40,000  Level FlightAware ADS-B
Wed 10:49:02 AM 44.3440 -72.6910 211° Southwest 424 488 40,000  Level FlightAware ADS-B
Wed 10:49:42 AM 44.2770 -72.7480 211° Southwest 419 482 40,000  Level FlightAware ADS-B
Wed 10:50:22 AM 44.2100 -72.8040 211° Southwest 416 479 40,000  Level FlightAware ADS-B
Wed 10:51:07 AM 44.1350 -72.8660 211° Southwest 414 476 40,000  Level FlightAware ADS-B
Wed 10:51:47 AM 44.0700 -72.9200 211° Southwest 416 479 40,000  Level FlightAware ADS-B
Wed 10:52:32 AM 43.9990 -72.9790 211° Southwest 420 483 40,000  Level FlightAware ADS-B
Wed 10:53:12 AM 43.9290 -73.0370 211° Southwest 425 489 40,000  Level FlightAware ADS-B
Wed 10:53:52 AM 43.8610 -73.0920 210° Southwest 429 494 40,000  Level FlightAware ADS-B
Wed 10:54:37 AM 43.7820 -73.1570 211° Southwest 433 498 40,000 -282 Level FlightAware ADS-B
Wed 10:55:17 AM 43.7130 -73.2130 210° Southwest 432 497 39,600 -1,341 Descending FlightAware ADS-B
Wed 10:56:02 AM 43.6430 -73.2700 211° Southwest 433 498 38,100 -2,329 Descending FlightAware ADS-B
Wed 10:56:42 AM 43.5680 -73.3310 211° Southwest 433 498 36,300 -1,976 Descending FlightAware ADS-B
Wed 10:57:27 AM 43.4890 -73.3950 210° Southwest 420 483 35,300 -1,579 Descending FlightAware ADS-B
Wed 10:58:17 AM 43.4260 -73.4460 210° Southwest 416 479 33,800 -2,526 Descending FlightAware ADS-B
Wed 10:59:02 AM 43.3650 -73.4950 210° Southwest 434 499 31,300 -2,922 Descending FlightAware ADS-B
Wed 11:00:12 AM 43.2370 -73.5970 210° Southwest 456 525 28,200 -4,330 Descending FlightAware ADS-B
Wed 11:00:57 AM 43.1150 -73.6610 201° Southwest 424 488 23,000 -4,659 Descending FlightAware ADS-B
Wed 11:01:37 AM 43.0410 -73.6920 197° South 402 463 21,600 -2,100 Descending FlightAware ADS-B
Wed 11:02:17 AM 42.9710 -73.7220 197° South 390 449 20,200 -2,047 Descending FlightAware ADS-B
Wed 11:03:02 AM 42.8930 -73.7540 197° South 371 427 18,700 -2,188 Descending FlightAware ADS-B
Wed 11:03:42 AM 42.8280 -73.7820 198° South 371 427 17,100 -1,412 Descending FlightAware ADS-B
Wed 11:04:27 AM 42.7570 -73.8120 197° South 365 420 16,700 -776 Descending FlightAware ADS-B
Wed 11:05:07 AM 42.6930 -73.8400 198° South 360 414 16,000 -750 Descending FlightAware ADS-B
Wed 11:05:47 AM 42.6300 -73.8680 198° South 361 415 15,700 -225 Descending FlightAware ADS-B
Wed 11:06:27 AM 42.5720 -73.8940 198° South 362 417 15,700  Level FlightAware ADS-B
Wed 11:07:12 AM 42.5000 -73.9260 198° South 363 418 15,700  Level FlightAware ADS-B
Wed 11:07:52 AM 42.4460 -73.9500 198° South 363 418 15,700  Level FlightAware ADS-B
Wed 11:08:32 AM 42.3910 -73.9740 198° South 363 418 15,700  Level FlightAware ADS-B
Wed 11:09:12 AM 42.3370 -73.9970 197° South 363 418 15,700  Level FlightAware ADS-B
Wed 11:10:02 AM 42.2690 -74.0270 198° South 363 418 15,700  Level FlightAware ADS-B
Wed 11:10:32 AM 42.2290 -74.0450 198° South 363 418 15,700 333 Level FlightAware ADS-B
Wed 11:11:14 AM 42.1133 -74.0886 198° South 355 409 16,100 -960 Climbing Boston Center
Wed 11:17:12 AM 41.6210 -74.3090 198° South 290 334 9,300 -1,052 Descending FlightAware ADS-B
Wed 11:17:42 AM 41.5870 -74.3230 197° South 290 334 9,300  Level FlightAware ADS-B
Wed 11:18:12 AM 41.5550 -74.3360 197° South 290 334 9,300  Level FlightAware ADS-B
Wed 11:18:32 AM 41.5330 -74.3450 197° South 290 334 9,300  Level FlightAware ADS-B
Wed 11:19:02 AM 41.5000 -74.3580 196° South 290 334 9,300 -495 Level FlightAware ADS-B
Wed 11:23:47 AM 41.1300 -74.5170 198° South 278 320 6,700 -479 Descending FlightAware ADS-B
Wed 11:24:15 AM 41.0933 -74.5328 198° South 280 322 6,800  Climbing FlightAware ADS-B
Wed 11:24:38 AM 41.0645 -74.5450 198° South 281 323 6,700 -207 Descending FlightAware ADS-B
Wed 11:25:42 AM 40.9870 -74.5550 186° South 279 321 6,500 -539 Descending FlightAware ADS-B
Wed 11:26:07 AM 40.9510 -74.5560 181° South 278 320 5,900 -1,067 Descending FlightAware ADS-B
Wed 11:26:27 AM 40.9232 -74.5572 182° South 287 330 5,700 -200 Descending FlightAware ADS-B
Wed 11:27:07 AM 40.8700 -74.5593 182° South 286 329 5,700  Level FlightAware ADS-B
Wed 11:27:23 AM 40.8496 -74.5601 182° South 285 328 5,700  Level FlightAware ADS-B
Wed 11:27:31 AM 40.8382 -74.5606 182° South 280 322 5,700  Level FlightAware ADS-B
Wed 11:27:59 AM 40.8020 -74.5625 182° South 285 328 5,700  Level FlightAware ADS-B
Wed 11:28:15 AM 40.7821 -74.5637 183° South 282 325 5,700  Level FlightAware ADS-B
Wed 11:28:42 AM 40.7467 -74.5661 183° South 282 325 5,700  Level FlightAware ADS-B
Wed 11:28:44 AM 40.7443 -74.5663 184° South 278 320 5,700  Level FlightAware ADS-B
Wed 11:29:00 AM 40.7227 -74.5675 182° South 281 323 5,700 -324 Level FlightAware ADS-B
Wed 11:29:21 AM 40.6957 -74.5694 183° South 278 320 5,500 -947 Descending FlightAware ADS-B
Wed 11:29:57 AM 40.6560 -74.5720 183° South 276 318 4,800 -727 Descending FlightAware ADS-B
Wed 11:30:27 AM 40.6130 -74.5750 183° South 283 326 4,700 -158 Descending FlightAware ADS-B
Wed 11:30:35 AM 40.6005 -74.5762 184° South 281 323 4,700  Level FlightAware ADS-B
Wed 11:30:50 AM 40.5809 -74.5778 184° South 281 323 4,700  Level FlightAware ADS-B
Wed 11:31:05 AM 40.5605 -74.5792 183° South 279 321 4,700 -194 Level FlightAware ADS-B
Wed 11:31:21 AM 40.5409 -74.5807 183° South 278 320 4,600 -643 Descending FlightAware ADS-B
Wed 11:31:33 AM 40.5255 -74.5819 183° South 279 321 4,400 -1,111 Descending FlightAware ADS-B
Wed 11:31:48 AM 40.5057 -74.5836 184° South 276 318 4,100 -1,200 Descending FlightAware ADS-B
Wed 11:32:03 AM 40.4865 -74.5857 185° South 274 315 3,800 -1,263 Descending FlightAware ADS-B
Wed 11:32:07 AM 40.4822 -74.5859 182° South 272 313 3,700 -857 Descending FlightAware ADS-B
Wed 11:32:10 AM 40.4783 -74.5855 176° South 270 311 3,700  Level FlightAware ADS-B
Wed 11:32:15 AM 40.4719 -74.5842 171° South 267 307 3,700  Level FlightAware ADS-B
Wed 11:32:23 AM 40.4632 -74.5802 161° South 261 300 3,700 545 Level FlightAware ADS-B
Wed 11:32:26 AM 40.4592 -74.5779 156° South 256 295 3,800 857 Climbing FlightAware ADS-B
Wed 11:32:30 AM 40.4554 -74.5759 158° South 253 291 3,800 -300 Level FlightAware ADS-B
Wed 11:32:46 AM 40.4388 -74.5663 156° South 242 278 3,700 -188 Descending FlightAware ADS-B
Wed 11:33:02 AM 40.4225 -74.5568 156° South 240 276 3,700 194 Level FlightAware ADS-B
Wed 11:33:17 AM 40.4065 -74.5472 155° Southeast 240 276 3,800  Climbing FlightAware ADS-B
Wed 11:33:33 AM 40.3905 -74.5376 155° Southeast 237 273 3,700  Descending FlightAware ADS-B
Wed 11:33:41 AM 40.3832 -74.5332 155° Southeast 235 270 3,800  Climbing FlightAware ADS-B
Wed 11:33:46 AM 40.3778 -74.5294 152° Southeast 236 272 3,700 -400 Descending FlightAware ADS-B
Wed 11:33:56 AM 40.3698 -74.5203 139° Southeast 235 270 3,700 400 Level FlightAware ADS-B
Wed 11:34:01 AM 40.3668 -74.5146 125° Southeast 237 273 3,800 500 Climbing FlightAware ADS-B
Wed 11:34:08 AM 40.3641 -74.5058 112° Southeast 239 275 3,800  Level FlightAware ADS-B
Wed 11:34:22 AM 40.3638 -74.4849 91° East 235 270 3,800  Level FlightAware ADS-B
Wed 11:34:29 AM 40.3651 -74.4763 79° East 233 268 3,800 -600 Level FlightAware ADS-B
Wed 11:34:32 AM 40.3663 -74.4721 69° East 232 267 3,700  Descending FlightAware ADS-B
Wed 11:34:44 AM 40.3736 -74.4575 57° Northeast 226 260 3,800 462 Climbing FlightAware ADS-B
Wed 11:34:45 AM 40.3737 -74.4571 72° East 230 265 3,800  Level FlightAware ADS-B
Wed 11:34:48 AM 40.3758 -74.4537 51° Northeast 226 260 3,800 -300 Level FlightAware ADS-B
Wed 11:35:05 AM 40.3868 -74.4355 52° Northeast 224 258 3,700 -367 Descending FlightAware ADS-B
Wed 11:35:37 AM 40.4060 -74.4040 51° Northeast 223 257 3,500 -500 Descending FlightAware ADS-B
Wed 11:35:41 AM 40.4100 -74.3975 51° Northeast 224 258 3,400 -1,200 Descending FlightAware ADS-B
Wed 11:35:47 AM 40.4140 -74.3905 53° Northeast 224 258 3,300 -1,000 Descending FlightAware ADS-B
Wed 11:35:59 AM 40.4213 -74.3787 51° Northeast 222 255 3,100 -1,125 Descending FlightAware ADS-B
Wed 11:36:19 AM 40.4343 -74.3571 52° Northeast 222 255 2,700 -600 Descending FlightAware ADS-B
Wed 11:36:39 AM 40.4460 -74.3375 52° Northeast 201 231 2,700  Level FlightAware ADS-B
Wed 11:36:54 AM 40.4547 -74.3237 50° Northeast 188 216 2,700  Level FlightAware ADS-B
Wed 11:37:04 AM 40.4609 -74.3169 40° Northeast 177 204 2,700 240 Level FlightAware ADS-B
Wed 11:37:19 AM 40.4714 -74.3087 31° Northeast 176 203 2,800 154 Climbing FlightAware ADS-B
Wed 11:37:43 AM 40.4889 -74.2968 27° Northeast 174 200 2,800 -150 Level FlightAware ADS-B
Wed 11:37:59 AM 40.5006 -74.2897 25° Northeast 173 199 2,700 -194 Descending FlightAware ADS-B
Wed 11:38:14 AM 40.5116 -74.2831 25° Northeast 172 198 2,700  Level FlightAware ADS-B
Wed 11:38:28 AM 40.5217 -74.2770 25° Northeast 172 198 2,700  Level FlightAware ADS-B
Wed 11:38:40 AM 40.5306 -74.2714 26° Northeast 170 196 2,700  Level FlightAware ADS-B
Wed 11:38:46 AM 40.5342 -74.2692 25° Northeast 170 196 2,700  Level FlightAware ADS-B
Wed 11:39:01 AM 40.5447 -74.2623 27° Northeast 170 196 2,700 -400 Level FlightAware ADS-B
Wed 11:39:16 AM 40.5560 -74.2551 26° Northeast 176 203 2,500 -720 Descending FlightAware ADS-B
Wed 11:39:26 AM 40.5631 -74.2506 26° Northeast 177 204 2,400 -889 Descending FlightAware ADS-B
Wed 11:39:43 AM 40.5760 -74.2427 25° Northeast 178 205 2,100 -1,125 Descending FlightAware ADS-B
Wed 11:39:58 AM 40.5871 -74.2358 25° Northeast 170 196 1,800 -968 Descending FlightAware ADS-B
Wed 11:40:14 AM 40.5981 -74.2288 26° Northeast 165 190 1,600 -938 Descending FlightAware ADS-B
Wed 11:40:30 AM 40.6089 -74.2219 26° Northeast 157 181 1,300 -811 Descending FlightAware ADS-B
Wed 11:40:51 AM 40.6219 -74.2139 25° Northeast 142 163 1,100 -649 Descending FlightAware ADS-B
Wed 11:41:07 AM 40.6309 -74.2082 26° Northeast 130 150 900 -774 Descending FlightAware ADS-B
Wed 11:41:22 AM 40.6391 -74.2032 25° Northeast 128 147 700 -833 Descending FlightAware ADS-B
Wed 11:41:43 AM 40.6501 -74.1964 25° Northeast 125 144 400 -811 Descending FlightAware ADS-B
Wed 11:41:59 AM 40.6585 -74.1912 25° Northeast 125 144 200 -581 Descending FlightAware ADS-B
Wed 11:42:14 AM 40.6666 -74.1862 25° Northeast 127 146 100 -400 Descending FlightAware ADS-B

Login

Don't have an account? Register now (free) for customized features, flight alerts, and more!